createdAt,value
2022-10-08T00:00:00.876Z,0.90
2022-10-08T00:02:29.742Z,0.90
2022-10-08T00:07:45.571Z,0.50
2022-10-08T00:10:12.065Z,0.60
2022-10-08T00:15:45.284Z,0.68
2022-10-08T00:18:11.819Z,0.80
2022-10-08T00:20:38.292Z,0.90
2022-10-08T00:23:04.772Z,0.75
2022-10-08T00:25:31.221Z,0.80
2022-10-08T00:27:57.835Z,0.70
2022-10-08T00:30:24.363Z,0.80
2022-10-08T00:35:40.575Z,0.95
2022-10-08T00:38:11.378Z,0.80
2022-10-08T00:40:52.981Z,0.85
2022-10-08T00:43:46.785Z,0.88
2022-10-08T00:46:38.371Z,0.75
2022-10-08T00:52:03.951Z,0.60
2022-10-08T00:54:31.973Z,0.82
2022-10-08T00:56:58.517Z,0.82
2022-10-08T00:59:26.319Z,0.80
2022-10-08T01:01:54.268Z,0.77
2022-10-08T01:04:20.820Z,0.90
2022-10-08T01:07:24.896Z,0.95
2022-10-08T01:10:15.515Z,0.68
2022-10-08T01:15:23.922Z,0.80
2022-10-08T01:18:07.088Z,0.90
2022-10-08T01:20:37.208Z,0.70
2022-10-08T01:23:12.467Z,0.88
2022-10-08T01:25:54.231Z,0.90
2022-10-08T01:28:33.064Z,0.68
2022-10-08T01:31:19.135Z,0.88
2022-10-08T01:33:51.351Z,0.80
2022-10-08T01:36:19.265Z,0.85
2022-10-08T01:38:51.317Z,0.88
2022-10-08T01:44:05.476Z,0.90
2022-10-08T01:46:34.211Z,0.90
2022-10-08T01:49:09.286Z,0.88
2022-10-08T01:54:33.791Z,0.85
2022-10-08T01:57:03.523Z,0.70
2022-10-08T01:59:59.118Z,0.70
2022-10-08T02:08:02.984Z,1.40
2022-10-08T02:10:29.476Z,0.57
2022-10-08T02:12:56.034Z,0.80
2022-10-08T02:15:46.321Z,0.82
2022-10-08T02:18:18.153Z,0.93
2022-10-08T02:20:55.801Z,0.80
2022-10-08T02:23:25.600Z,0.80
2022-10-08T02:25:58.034Z,0.88
2022-10-08T02:28:35.954Z,0.73
2022-10-08T02:31:09.897Z,1.10
2022-10-08T02:36:31.190Z,0.90
2022-10-08T02:39:01.560Z,0.88
2022-10-08T02:41:34.247Z,0.73
2022-10-08T02:44:06.192Z,0.80
2022-10-08T02:46:37.617Z,1.10
2022-10-08T02:49:27.777Z,1.00
2022-10-08T02:51:57.914Z,0.98
2022-10-08T02:54:24.652Z,0.90
2022-10-08T02:56:56.802Z,1.00
2022-10-08T03:04:53.657Z,0.93
2022-10-08T03:07:23.070Z,0.90
2022-10-08T03:09:52.091Z,0.90
2022-10-08T03:12:19.197Z,1.02
2022-10-08T03:14:48.621Z,0.82
2022-10-08T03:17:22.252Z,0.90
2022-10-08T03:19:48.723Z,0.90
2022-10-08T03:25:09.812Z,0.98
2022-10-08T03:27:36.308Z,0.90
2022-10-08T03:30:04.703Z,0.90
2022-10-08T03:32:31.298Z,0.82
2022-10-08T03:34:57.854Z,0.98
2022-10-08T03:37:24.630Z,0.80
2022-10-08T03:39:53.281Z,0.80
2022-10-08T03:42:19.880Z,0.98
2022-10-08T03:50:08.323Z,0.90
2022-10-08T03:57:56.513Z,0.93
2022-10-08T04:00:23.070Z,0.93
2022-10-08T04:05:48.985Z,1.00
2022-10-08T04:08:15.436Z,0.90
2022-10-08T04:10:41.900Z,1.17
2022-10-08T04:15:54.523Z,0.82
2022-10-08T04:18:21.114Z,0.80
2022-10-08T04:23:34.786Z,0.93
2022-10-08T04:26:01.600Z,0.80
2022-10-08T04:28:28.939Z,0.77
2022-10-08T04:31:04.254Z,1.23
2022-10-08T04:36:18.836Z,0.80
2022-10-08T04:38:46.102Z,0.93
2022-10-08T04:41:15.837Z,0.98
2022-10-08T04:43:43.844Z,1.33
2022-10-08T04:46:12.513Z,1.00
2022-10-08T04:51:26.618Z,1.45
2022-10-08T04:53:55.066Z,1.15
2022-10-08T04:56:24.770Z,0.90
2022-10-08T04:58:51.270Z,1.30
2022-10-08T05:03:59.538Z,1.33
2022-10-08T05:06:28.433Z,1.00
2022-10-08T05:11:36.849Z,1.25
2022-10-08T05:14:03.390Z,1.30
2022-10-08T05:16:29.959Z,1.15
2022-10-08T05:18:57.396Z,1.30
2022-10-08T05:21:26.583Z,1.15
2022-10-08T05:24:07.497Z,0.90
2022-10-08T05:26:58.071Z,1.00
2022-10-08T05:29:25.638Z,0.90
2022-10-08T05:31:52.263Z,1.20
2022-10-08T05:34:18.747Z,1.55
2022-10-08T05:36:45.306Z,1.42
2022-10-08T05:39:11.862Z,1.13
2022-10-08T05:41:40.043Z,1.10
2022-10-08T05:44:07.446Z,1.33
2022-10-08T05:46:36.265Z,1.42
2022-10-08T05:49:06.019Z,1.17
2022-10-08T05:51:40.796Z,1.45
2022-10-08T05:54:07.453Z,1.50
2022-10-08T05:56:34.309Z,1.38
2022-10-08T05:59:00.911Z,1.48
2022-10-08T06:01:31.251Z,1.65
2022-10-08T06:04:07.016Z,1.80
2022-10-08T06:09:20.852Z,1.40
2022-10-08T06:11:48.127Z,1.20
2022-10-08T06:16:57.648Z,0.95
2022-10-08T06:19:24.149Z,1.20
2022-10-08T06:21:50.667Z,1.10
2022-10-08T06:29:51.465Z,0.90
2022-10-08T06:32:17.956Z,1.17
2022-10-08T06:34:44.441Z,1.10
2022-10-08T06:39:55.140Z,0.85
2022-10-08T06:42:21.694Z,0.70
2022-10-08T06:44:48.296Z,1.00
2022-10-08T06:47:14.759Z,0.95
2022-10-08T06:49:41.210Z,0.80
2022-10-08T06:54:47.190Z,0.93
2022-10-08T06:57:13.746Z,0.80
2022-10-08T06:59:40.325Z,0.98
2022-10-08T07:02:06.860Z,0.70
2022-10-08T07:07:16.994Z,1.00
2022-10-08T07:09:43.444Z,0.75
2022-10-08T07:14:52.527Z,1.00
2022-10-08T07:17:19.003Z,0.68
2022-10-08T07:19:45.444Z,1.00
2022-10-08T07:24:56.571Z,0.90
2022-10-08T07:27:23.849Z,0.80
2022-10-08T07:29:50.323Z,0.77
2022-10-08T07:32:16.779Z,0.68
2022-10-08T07:34:43.257Z,0.60
2022-10-08T07:37:09.718Z,0.60
2022-10-08T07:42:25.509Z,0.82
2022-10-08T07:47:32.353Z,0.80
2022-10-08T07:49:58.823Z,0.73
2022-10-08T07:52:26.387Z,0.80
2022-10-08T07:55:06.073Z,0.80
2022-10-08T07:57:32.530Z,0.77
2022-10-08T07:59:59.062Z,0.63
2022-10-08T08:05:07.218Z,0.90
2022-10-08T08:07:33.675Z,0.70
2022-10-08T08:10:00.153Z,0.90
2022-10-08T08:12:26.667Z,1.20
2022-10-08T08:14:53.212Z,0.70
2022-10-08T08:17:21.550Z,0.77
2022-10-08T08:19:48.028Z,0.75
2022-10-08T08:22:14.719Z,0.75
2022-10-08T08:27:22.691Z,0.80
2022-10-08T08:29:49.191Z,0.68
2022-10-08T08:32:28.368Z,0.60
2022-10-08T08:34:55.253Z,1.00
2022-10-08T08:37:21.796Z,0.90
2022-10-08T08:39:52.046Z,0.80
2022-10-08T08:42:37.196Z,0.88
2022-10-08T08:45:46.289Z,0.80
2022-10-08T08:48:19.221Z,0.80
2022-10-08T08:53:14.641Z,0.90
2022-10-08T09:01:48.498Z,1.00
2022-10-08T09:04:45.064Z,0.63
2022-10-08T09:07:19.678Z,1.00
2022-10-08T09:09:52.888Z,0.80
2022-10-08T09:12:43.759Z,0.88
2022-10-08T09:18:25.924Z,0.70
2022-10-08T09:20:52.520Z,0.85
2022-10-08T09:23:22.173Z,0.60
2022-10-08T09:26:09.031Z,0.47
2022-10-08T09:28:47.450Z,0.70
2022-10-08T09:31:38.526Z,0.73
2022-10-08T09:34:23.472Z,0.70
2022-10-08T09:37:00.397Z,0.73
2022-10-08T09:42:29.401Z,0.70
2022-10-08T09:44:57.994Z,0.80
2022-10-08T09:47:26.346Z,0.70
2022-10-08T09:50:21.081Z,0.98
2022-10-08T09:52:50.636Z,0.75
2022-10-08T09:58:04.117Z,0.90
2022-10-08T10:00:36.257Z,0.70
2022-10-08T10:03:06.693Z,0.75
2022-10-08T10:05:36.057Z,0.77
2022-10-08T10:08:05.175Z,0.77
2022-10-08T10:13:40.466Z,0.65
2022-10-08T10:16:20.580Z,0.60
2022-10-08T10:18:59.024Z,0.60
2022-10-08T10:21:51.838Z,0.65
2022-10-08T10:24:56.396Z,0.50
2022-10-08T10:27:22.811Z,0.70
2022-10-08T10:30:18.243Z,0.77
2022-10-08T10:32:49.349Z,0.70
2022-10-08T10:35:27.641Z,0.80
2022-10-08T10:38:09.501Z,0.60
2022-10-08T10:40:41.959Z,0.60
2022-10-08T10:43:28.500Z,0.80
2022-10-08T10:46:17.394Z,0.60
2022-10-08T10:51:40.132Z,1.00
2022-10-08T10:54:30.248Z,0.95
2022-10-08T10:57:04.833Z,0.70
2022-10-08T10:59:59.036Z,0.60
2022-10-08T11:03:16.319Z,0.52
2022-10-08T11:05:45.285Z,0.60
2022-10-08T11:08:23.007Z,0.80
2022-10-08T11:14:12.218Z,0.70
2022-10-08T11:16:55.690Z,0.80
2022-10-08T11:22:49.058Z,0.77
2022-10-08T11:26:10.763Z,0.80
2022-10-08T11:28:49.822Z,0.80
2022-10-08T11:31:35.579Z,0.98
2022-10-08T11:34:03.890Z,0.77
2022-10-08T11:36:33.415Z,0.60
2022-10-08T11:39:00.110Z,0.80
2022-10-08T11:41:39.094Z,0.63
2022-10-08T11:44:10.962Z,0.70
2022-10-08T11:46:37.725Z,0.50
2022-10-08T11:49:16.124Z,0.50
2022-10-08T11:51:52.735Z,0.65
2022-10-08T11:54:38.486Z,0.80
2022-10-08T11:58:06.280Z,0.75
2022-10-08T12:00:33.009Z,1.13
2022-10-08T12:03:08.499Z,0.50
2022-10-08T12:05:50.157Z,0.77
2022-10-08T12:11:35.486Z,0.55
2022-10-08T12:14:20.235Z,0.70
2022-10-08T12:16:55.532Z,0.55
2022-10-08T12:19:37.119Z,0.68
2022-10-08T12:22:16.483Z,0.77
2022-10-08T12:24:55.609Z,0.70
2022-10-08T12:27:31.700Z,0.80
2022-10-08T12:30:12.306Z,0.90
2022-10-08T12:32:41.640Z,0.70
2022-10-08T12:35:28.894Z,0.57
2022-10-08T12:38:13.553Z,0.60
2022-10-08T12:40:52.968Z,0.73
2022-10-08T12:43:36.828Z,0.60
2022-10-08T12:46:25.054Z,0.80
2022-10-08T12:49:11.812Z,0.75
2022-10-08T12:51:47.315Z,0.65
2022-10-08T12:57:12.572Z,0.63
2022-10-08T12:59:41.554Z,0.50
2022-10-08T13:02:43.643Z,0.90
2022-10-08T13:05:22.228Z,0.38
2022-10-08T13:07:49.611Z,0.60
2022-10-08T13:10:20.606Z,0.50
2022-10-08T13:13:04.648Z,0.70
2022-10-08T13:15:33.526Z,0.88
2022-10-08T13:18:21.798Z,0.60
2022-10-08T13:21:02.829Z,0.68
2022-10-08T13:23:36.521Z,0.60
2022-10-08T13:26:03.784Z,0.73
2022-10-08T13:28:55.699Z,0.70
2022-10-08T13:31:23.579Z,0.93
2022-10-08T13:33:50.803Z,1.27
2022-10-08T13:39:03.339Z,0.50
2022-10-08T13:41:29.805Z,0.60
2022-10-08T13:43:56.254Z,0.40
2022-10-08T13:46:22.741Z,0.80
2022-10-08T13:48:49.359Z,0.60
2022-10-08T13:51:16.430Z,0.75
2022-10-08T13:53:45.980Z,0.60
2022-10-08T13:56:12.587Z,0.50
2022-10-08T13:58:39.078Z,0.70
2022-10-08T14:01:05.670Z,0.68
2022-10-08T14:03:32.349Z,0.50
2022-10-08T14:05:58.972Z,0.82
2022-10-08T14:08:33.936Z,0.57
2022-10-08T14:11:02.257Z,0.60
2022-10-08T14:21:23.013Z,0.50
2022-10-08T14:23:49.490Z,0.57
2022-10-08T14:26:16.021Z,0.63
2022-10-08T14:28:42.548Z,0.70
2022-10-08T14:31:11.918Z,0.50
2022-10-08T14:33:42.917Z,0.57
2022-10-08T14:36:15.848Z,0.60
2022-10-08T14:38:42.544Z,0.60
2022-10-08T14:41:09.928Z,0.50
2022-10-08T14:43:36.835Z,0.70
2022-10-08T14:48:44.065Z,0.70
2022-10-08T14:51:12.534Z,0.80
2022-10-08T14:53:39.645Z,0.50
2022-10-08T14:56:12.474Z,0.50
2022-10-08T14:58:40.187Z,0.50
2022-10-08T15:01:06.743Z,0.70
2022-10-08T15:03:33.288Z,0.70
2022-10-08T15:06:00.899Z,0.65
2022-10-08T15:08:28.743Z,0.70
2022-10-08T15:13:47.596Z,0.75
2022-10-08T15:16:14.961Z,0.73
2022-10-08T15:21:29.767Z,0.90
2022-10-08T15:23:57.060Z,0.73
2022-10-08T15:26:23.553Z,0.60
2022-10-08T15:28:53.755Z,0.75
2022-10-08T15:31:28.838Z,0.70
2022-10-08T15:33:59.321Z,0.45
2022-10-08T15:36:25.971Z,0.57
2022-10-08T15:38:55.570Z,0.65
2022-10-08T15:41:22.435Z,0.70
2022-10-08T15:43:48.955Z,0.70
2022-10-08T15:46:19.575Z,0.90
2022-10-08T15:48:54.408Z,0.70
2022-10-08T15:51:22.666Z,0.70
2022-10-08T15:53:50.367Z,0.80
2022-10-08T15:56:17.147Z,0.80
2022-10-08T15:58:50.827Z,0.75
2022-10-08T16:01:20.887Z,0.82
2022-10-08T16:03:49.518Z,0.70
2022-10-08T16:06:19.221Z,0.55
2022-10-08T16:08:46.147Z,0.75
2022-10-08T16:11:17.369Z,0.82
2022-10-08T16:13:45.993Z,0.77
2022-10-08T16:16:15.341Z,0.65
2022-10-08T16:18:42.920Z,0.90
2022-10-08T16:21:11.460Z,0.77
2022-10-08T16:23:38.751Z,1.20
2022-10-08T16:26:11.157Z,0.77
2022-10-08T16:28:39.752Z,0.70
2022-10-08T16:31:08.455Z,0.63
2022-10-08T16:33:35.098Z,0.70
2022-10-08T16:36:04.237Z,0.70
2022-10-08T16:38:31.079Z,0.70
2022-10-08T16:41:20.154Z,0.95
2022-10-08T16:43:49.385Z,0.63
2022-10-08T16:46:17.486Z,0.90
2022-10-08T16:48:44.829Z,0.77
2022-10-08T16:51:12.298Z,0.80
2022-10-08T16:53:38.796Z,1.00
2022-10-08T16:56:05.785Z,0.60
2022-10-08T16:58:33.205Z,1.15
2022-10-08T17:01:04.765Z,0.80
2022-10-08T17:03:31.290Z,0.82
2022-10-08T17:05:57.983Z,1.00
2022-10-08T17:08:24.526Z,0.60
2022-10-08T17:10:51.111Z,0.90
2022-10-08T17:13:17.602Z,0.90
2022-10-08T17:15:44.061Z,0.90
2022-10-08T17:18:10.962Z,1.00
2022-10-08T17:20:37.541Z,0.82
2022-10-08T17:23:04.013Z,0.60
2022-10-08T17:25:30.616Z,0.75
2022-10-08T17:27:57.106Z,1.10
2022-10-08T17:30:23.592Z,0.77
2022-10-08T17:32:50.359Z,0.70
2022-10-08T17:35:16.965Z,0.80
2022-10-08T17:37:43.498Z,0.95
2022-10-08T17:40:10.128Z,0.90
2022-10-08T17:42:36.717Z,1.33
2022-10-08T17:45:03.486Z,0.93
2022-10-08T17:47:29.937Z,1.10
2022-10-08T17:49:56.546Z,0.90
2022-10-08T17:52:23.076Z,1.10
2022-10-08T17:54:49.540Z,1.10
2022-10-08T17:57:16.036Z,1.00
2022-10-08T17:59:43.616Z,0.93
2022-10-08T18:02:10.292Z,1.02
2022-10-08T18:04:36.907Z,0.95
2022-10-08T18:07:03.796Z,1.15
2022-10-08T18:09:30.386Z,1.10
2022-10-08T18:11:56.930Z,1.10
2022-10-08T18:14:23.612Z,0.95
2022-10-08T18:16:50.431Z,1.10
2022-10-08T18:19:17.843Z,1.63
2022-10-08T18:21:44.384Z,1.38
2022-10-08T18:24:11.131Z,1.00
2022-10-08T18:26:37.839Z,1.45
2022-10-08T18:29:09.036Z,1.20
2022-10-08T18:31:36.751Z,0.95
2022-10-08T18:34:06.848Z,1.30
2022-10-08T18:36:35.325Z,1.20
2022-10-08T18:39:05.421Z,1.10
2022-10-08T18:41:38.960Z,1.25
2022-10-08T18:44:06.986Z,1.10
2022-10-08T18:46:35.899Z,1.30
2022-10-08T18:49:03.271Z,1.17
2022-10-08T18:51:30.457Z,1.30
2022-10-08T18:53:58.145Z,1.40
2022-10-08T18:56:29.058Z,1.70
2022-10-08T18:58:57.161Z,1.40
2022-10-08T19:01:26.481Z,1.30
2022-10-08T19:03:58.573Z,1.35
2022-10-08T19:06:28.236Z,1.50
2022-10-08T19:08:56.057Z,1.40
2022-10-08T19:11:33.048Z,1.58
2022-10-08T19:14:01.056Z,1.30
2022-10-08T19:16:27.845Z,1.58
2022-10-08T19:19:02.370Z,1.35
2022-10-08T19:21:30.062Z,1.40
2022-10-08T19:23:57.860Z,1.65
2022-10-08T19:26:26.048Z,1.70
2022-10-08T19:28:54.385Z,1.58
2022-10-08T19:31:35.191Z,1.50
2022-10-08T19:34:06.842Z,1.73
2022-10-08T19:36:37.948Z,1.50
2022-10-08T19:39:07.741Z,1.90
2022-10-08T19:41:34.221Z,1.45
2022-10-08T19:44:00.700Z,1.73
2022-10-08T19:46:28.144Z,1.70
2022-10-08T19:48:59.982Z,1.70
2022-10-08T19:51:28.367Z,1.50
2022-10-08T19:53:55.369Z,1.40
2022-10-08T19:56:22.662Z,1.95
2022-10-08T19:58:53.091Z,1.70
2022-10-08T20:03:47.922Z,1.95
2022-10-08T20:06:23.275Z,1.67
2022-10-08T20:08:56.473Z,1.90
2022-10-08T20:11:23.507Z,2.00
2022-10-08T20:13:51.415Z,1.88
2022-10-08T20:16:24.021Z,1.90
2022-10-08T20:18:53.258Z,2.22
2022-10-08T20:21:20.961Z,1.90
2022-10-08T20:23:48.258Z,2.38
2022-10-08T20:26:21.326Z,2.13
2022-10-08T20:28:53.409Z,2.13
2022-10-08T20:31:22.186Z,2.20
2022-10-08T20:33:54.867Z,2.05
2022-10-08T20:36:21.434Z,2.00
2022-10-08T20:38:47.882Z,2.15
2022-10-08T20:41:14.490Z,2.47
2022-10-08T20:43:41.114Z,2.15
2022-10-08T20:46:11.216Z,2.30
2022-10-08T20:48:39.420Z,2.35
2022-10-08T20:51:11.937Z,2.45
2022-10-08T20:53:38.807Z,2.30
2022-10-08T20:56:09.130Z,2.22
2022-10-08T20:58:37.240Z,2.10
2022-10-08T21:01:06.923Z,2.10
2022-10-08T21:03:36.069Z,2.63
2022-10-08T21:06:06.761Z,2.90
2022-10-08T21:08:41.190Z,2.33
2022-10-08T21:11:10.189Z,2.78
2022-10-08T21:13:37.002Z,2.58
2022-10-08T21:16:07.129Z,2.55
2022-10-08T21:18:35.016Z,2.45
2022-10-08T21:21:03.581Z,2.35
2022-10-08T21:23:30.644Z,2.55
2022-10-08T21:26:21.155Z,2.88
2022-10-08T21:31:16.881Z,2.72
2022-10-08T21:33:46.125Z,2.80
2022-10-08T21:36:15.226Z,2.35
2022-10-08T21:38:42.230Z,2.83
2022-10-08T21:41:12.517Z,2.70
2022-10-08T21:43:40.805Z,2.95
2022-10-08T21:46:09.010Z,2.70
2022-10-08T21:48:36.056Z,2.47
2022-10-08T21:51:09.917Z,3.00
2022-10-08T21:53:38.446Z,2.85
2022-10-08T21:56:09.061Z,2.65
2022-10-08T21:58:47.516Z,2.90
2022-10-08T22:01:24.769Z,2.75
2022-10-08T22:03:56.165Z,2.85
2022-10-08T22:06:23.286Z,2.42
2022-10-08T22:08:50.468Z,2.83
2022-10-08T22:11:17.383Z,2.60
2022-10-08T22:13:44.102Z,3.00
2022-10-08T22:16:13.362Z,2.88
2022-10-08T22:18:40.351Z,2.90
2022-10-08T22:21:09.259Z,2.95
2022-10-08T22:23:36.205Z,2.83
2022-10-08T22:26:09.158Z,2.42
2022-10-08T22:28:36.385Z,2.47
2022-10-08T22:31:04.944Z,2.42
2022-10-08T22:33:32.827Z,2.67
2022-10-08T22:36:04.043Z,2.58
2022-10-08T22:38:35.134Z,2.80
2022-10-08T22:41:04.385Z,2.40
2022-10-08T22:43:31.309Z,2.83
2022-10-08T22:46:05.296Z,2.60
2022-10-08T22:48:32.556Z,2.22
2022-10-08T22:51:08.419Z,2.35
2022-10-08T22:53:35.243Z,2.25
2022-10-08T22:56:06.558Z,2.50
2022-10-08T22:58:35.322Z,2.40
2022-10-08T23:01:07.648Z,2.47
2022-10-08T23:03:35.494Z,2.47
2022-10-08T23:06:08.057Z,2.30
2022-10-08T23:08:35.608Z,2.20
2022-10-08T23:11:03.144Z,2.50
2022-10-08T23:13:30.133Z,2.47
2022-10-08T23:16:00.698Z,2.22
2022-10-08T23:18:27.136Z,2.17
2022-10-08T23:20:53.601Z,2.17
2022-10-08T23:23:20.344Z,1.80
2022-10-08T23:25:58.710Z,2.15
2022-10-08T23:28:26.580Z,2.20
2022-10-08T23:30:53.632Z,2.42
2022-10-08T23:33:20.850Z,2.20
2022-10-08T23:35:55.684Z,2.15
2022-10-08T23:38:22.783Z,2.17
2022-10-08T23:40:52.129Z,1.98
2022-10-08T23:43:18.728Z,2.25
2022-10-08T23:45:45.243Z,1.95
2022-10-08T23:48:11.758Z,1.80
2022-10-08T23:50:38.757Z,1.92
2022-10-08T23:53:05.394Z,1.80
2022-10-08T23:55:31.924Z,1.80
2022-10-08T23:57:58.376Z,1.95
